SPM weather

Spangdahlem Air Base
Trier, Rhineland-Palatinate, Germany

Public forecast

Using degrees Celsius for public forecast. Weather courtesy of forecast.io.

METAR (pilot weather report)

Retrieved 2019/09/23 12:39 UTC (5 minutes ago):

ETAD 231239Z AUTO 26005KT 9999 -RA BKN020 BKN028 OVC035 15/11 A3002 RMK AO2 RAB39 CIG 020V026 SLP153 $

TAF (pilot weather forecast)

Retrieved 2019/09/23 12:08 UTC (36 minutes ago):

TAF ETAD 231158Z 2312/2418 23010G18KT 9999 SCT015 OVC030 QNH2994INS BECMG 2318/2319 23005KT 8000 BR SCT015 SCT030 QNH2996INS TEMPO 2323/2405 5000 BR BKN008 BECMG 2407/2408 18010G15KT 9999 NSW BKN015 OVC030 QNH2986INS BECMG 2413/2414 18010G15KT 8000 -SHRA BKN005 OVC008 QNH2974INS TX17/2315Z TN11/2403Z